Terminal Aerodrome Forecast
Issued by NWS

Home | Current Version | Previous Version | Text Only | Print | Product List | Glossary On
Versions: 1 2 3 4 5 6 7 8 9 10 11 12 13 14 15 16 17 18 19 20 21 22 23 24 25 26 27 28 29 30
000
FTUS43 KDMX 260520
TAFOTM
TAF
KOTM 260520Z 2606/2706 15004KT P6SM SCT050 SCT140
     FM261000 VRB05KT P6SM VCSH BKN040
     FM261800 34011KT P6SM VCTS BKN050CB
     FM262100 34007KT P6SM BKN035
     FM270300 12004KT P6SM SKC=

USA.gov is the U.S. government's official web portal to all federal, state and local government web resources and services.